createdAt,value
2023-05-07T00:00:55.504Z,479.00
2023-05-07T00:01:55.548Z,478.00
2023-05-07T00:02:55.699Z,476.00
2023-05-07T00:03:56.075Z,478.00
2023-05-07T00:04:55.785Z,476.00
2023-05-07T00:05:55.767Z,476.00
2023-05-07T00:06:55.868Z,475.00
2023-05-07T00:07:56.671Z,473.00
2023-05-07T00:08:55.976Z,474.00
2023-05-07T00:09:56.014Z,474.00
2023-05-07T00:10:56.063Z,472.00
2023-05-07T00:11:56.126Z,474.00
2023-05-07T00:12:56.280Z,477.00
2023-05-07T00:13:56.213Z,477.00
2023-05-07T00:14:56.284Z,479.00
2023-05-07T00:15:56.389Z,478.00
2023-05-07T00:16:56.606Z,478.00
2023-05-07T00:17:56.506Z,474.00
2023-05-07T00:18:56.503Z,475.00
2023-05-07T00:19:56.604Z,476.00
2023-05-07T00:20:56.609Z,474.00
2023-05-07T00:21:56.647Z,474.00
2023-05-07T00:22:56.753Z,474.00
2023-05-07T00:23:56.785Z,474.00
2023-05-07T00:24:56.855Z,473.00
2023-05-07T00:25:56.903Z,475.00
2023-05-07T00:26:56.950Z,474.00
2023-05-07T00:27:57.036Z,475.00
2023-05-07T00:28:57.059Z,475.00
2023-05-07T00:29:57.132Z,477.00
2023-05-07T00:30:57.170Z,480.00
2023-05-07T00:31:57.298Z,480.00
2023-05-07T00:32:57.415Z,478.00
2023-05-07T00:33:57.371Z,478.00
2023-05-07T00:34:57.411Z,477.00
2023-05-07T00:35:57.516Z,476.00
2023-05-07T00:36:57.546Z,476.00
2023-05-07T00:37:57.596Z,476.00
2023-05-07T00:38:57.654Z,475.00
2023-05-07T00:39:57.712Z,477.00
2023-05-07T00:40:57.755Z,476.00
2023-05-07T00:41:57.867Z,476.00
2023-05-07T00:42:57.900Z,476.00
2023-05-07T00:43:57.938Z,476.00
2023-05-07T00:44:57.983Z,475.00
2023-05-07T00:45:58.078Z,475.00
2023-05-07T00:46:58.107Z,475.00
2023-05-07T00:47:58.195Z,474.00
2023-05-07T00:48:58.210Z,475.00
2023-05-07T00:49:58.286Z,474.00
2023-05-07T00:50:58.373Z,473.00
2023-05-07T00:51:58.542Z,473.00
2023-05-07T00:52:58.507Z,473.00
2023-05-07T00:53:58.534Z,474.00
2023-05-07T00:54:58.625Z,473.00
2023-05-07T00:55:58.645Z,471.00
2023-05-07T00:56:58.728Z,469.00
2023-05-07T00:57:58.756Z,470.00
2023-05-07T00:58:58.880Z,471.00
2023-05-07T00:59:58.912Z,471.00
2023-05-07T01:00:58.964Z,471.00
2023-05-07T01:01:59.905Z,472.00
2023-05-07T01:02:59.146Z,471.00
2023-05-07T01:03:59.227Z,473.00
2023-05-07T01:04:59.214Z,473.00
2023-05-07T01:05:59.265Z,473.00
2023-05-07T01:06:59.333Z,475.00
2023-05-07T01:07:59.487Z,475.00
2023-05-07T01:08:59.435Z,476.00
2023-05-07T01:09:59.544Z,475.00
2023-05-07T01:10:59.606Z,476.00
2023-05-07T01:11:59.666Z,477.00
2023-05-07T01:12:59.809Z,481.00
2023-05-07T01:13:59.782Z,480.00
2023-05-07T01:14:59.842Z,479.00
2023-05-07T01:15:59.885Z,480.00
2023-05-07T01:16:59.968Z,479.00
2023-05-07T01:18:00.162Z,479.00
2023-05-07T01:19:00.058Z,478.00
2023-05-07T01:20:00.200Z,478.00
2023-05-07T01:21:00.172Z,481.00
2023-05-07T01:22:00.203Z,480.00
2023-05-07T01:23:00.288Z,479.00
2023-05-07T01:24:00.391Z,477.00
2023-05-07T01:25:00.397Z,475.00
2023-05-07T01:26:00.490Z,475.00
2023-05-07T01:27:00.516Z,474.00
2023-05-07T01:28:00.635Z,472.00
2023-05-07T01:29:00.678Z,469.00
2023-05-07T01:30:00.724Z,472.00
2023-05-07T01:31:00.806Z,472.00
2023-05-07T01:32:00.918Z,475.00
2023-05-07T01:33:00.957Z,475.00
2023-05-07T01:34:00.956Z,475.00
2023-05-07T01:35:01.057Z,474.00
2023-05-07T01:36:01.061Z,476.00
2023-05-07T01:37:01.140Z,477.00
2023-05-07T01:38:01.215Z,475.00
2023-05-07T01:39:01.257Z,477.00
2023-05-07T01:40:01.437Z,475.00
2023-05-07T01:41:01.357Z,475.00
2023-05-07T01:42:01.422Z,476.00
2023-05-07T01:43:01.512Z,477.00
2023-05-07T01:44:01.526Z,477.00
2023-05-07T01:45:01.578Z,476.00
2023-05-07T01:46:01.703Z,475.00
2023-05-07T01:47:01.719Z,476.00
2023-05-07T01:48:01.812Z,475.00
2023-05-07T01:49:01.788Z,476.00
2023-05-07T01:50:01.888Z,474.00
2023-05-07T01:51:01.893Z,473.00
2023-05-07T01:52:01.980Z,474.00
2023-05-07T01:53:02.040Z,473.00
2023-05-07T01:54:02.071Z,472.00
2023-05-07T01:55:02.122Z,471.00
2023-05-07T01:56:02.261Z,470.00
2023-05-07T01:57:02.264Z,470.00
2023-05-07T01:58:02.314Z,470.00
2023-05-07T01:59:02.333Z,471.00
2023-05-07T02:00:02.390Z,473.00
2023-05-07T02:01:02.419Z,471.00
2023-05-07T02:02:02.527Z,470.00
2023-05-07T02:03:02.692Z,471.00
2023-05-07T02:04:02.607Z,471.00
2023-05-07T02:05:02.618Z,470.00
2023-05-07T02:06:02.708Z,469.00
2023-05-07T02:07:02.732Z,468.00
2023-05-07T02:08:02.804Z,468.00
2023-05-07T02:09:02.837Z,468.00
2023-05-07T02:10:02.890Z,469.00
2023-05-07T02:11:02.951Z,471.00
2023-05-07T02:12:02.993Z,470.00
2023-05-07T02:13:03.141Z,470.00
2023-05-07T02:14:03.102Z,472.00
2023-05-07T02:15:03.128Z,472.00
2023-05-07T02:16:03.190Z,474.00
2023-05-07T02:17:03.198Z,474.00
2023-05-07T02:18:03.348Z,473.00
2023-05-07T02:19:03.355Z,473.00
2023-05-07T02:20:03.416Z,471.00
2023-05-07T02:21:03.434Z,470.00
2023-05-07T02:22:03.528Z,472.00
2023-05-07T02:23:03.609Z,473.00
2023-05-07T02:24:03.604Z,474.00
2023-05-07T02:25:03.654Z,470.00
2023-05-07T02:26:03.703Z,470.00
2023-05-07T02:27:03.753Z,470.00
2023-05-07T02:28:03.946Z,472.00
2023-05-07T02:29:03.908Z,471.00
2023-05-07T02:30:03.934Z,471.00
2023-05-07T02:31:04.002Z,471.00
2023-05-07T02:32:04.139Z,469.00
2023-05-07T02:33:04.195Z,469.00
2023-05-07T02:34:04.176Z,471.00
2023-05-07T02:35:04.245Z,474.00
2023-05-07T02:36:04.300Z,473.00
2023-05-07T02:37:04.363Z,473.00
2023-05-07T02:38:04.461Z,473.00
2023-05-07T02:39:04.462Z,475.00
2023-05-07T02:40:04.552Z,475.00
2023-05-07T02:41:04.588Z,475.00
2023-05-07T02:42:04.683Z,474.00
2023-05-07T02:43:04.708Z,472.00
2023-05-07T02:44:04.814Z,475.00
2023-05-07T02:45:04.846Z,473.00
2023-05-07T02:46:04.981Z,473.00
2023-05-07T02:47:04.922Z,474.00
2023-05-07T02:48:04.991Z,472.00
2023-05-07T02:49:05.051Z,472.00
2023-05-07T02:50:05.061Z,473.00
2023-05-07T02:51:05.109Z,472.00
2023-05-07T02:52:05.161Z,473.00
2023-05-07T02:53:05.225Z,471.00
2023-05-07T02:54:05.276Z,473.00
2023-05-07T02:55:05.336Z,473.00
2023-05-07T02:56:05.357Z,472.00
2023-05-07T02:57:05.419Z,473.00
2023-05-07T02:58:05.503Z,473.00
2023-05-07T02:59:05.586Z,474.00
2023-05-07T03:00:05.650Z,474.00
2023-05-07T03:01:05.693Z,473.00
2023-05-07T03:02:05.690Z,474.00
2023-05-07T03:03:05.811Z,475.00
2023-05-07T03:04:05.829Z,474.00
2023-05-07T03:05:05.881Z,472.00
2023-05-07T03:06:05.930Z,470.00
2023-05-07T03:07:05.955Z,470.00
2023-05-07T03:08:06.034Z,471.00
2023-05-07T03:09:06.080Z,471.00
2023-05-07T03:10:06.142Z,468.00
2023-05-07T03:11:06.184Z,467.00
2023-05-07T03:12:06.238Z,467.00
2023-05-07T03:13:06.339Z,469.00
2023-05-07T03:14:06.320Z,470.00
2023-05-07T03:15:06.375Z,467.00
2023-05-07T03:16:06.603Z,469.00
2023-05-07T03:17:06.469Z,468.00
2023-05-07T03:18:06.701Z,469.00
2023-05-07T03:19:06.624Z,469.00
2023-05-07T03:20:06.677Z,469.00
2023-05-07T03:21:06.654Z,467.00
2023-05-07T03:22:06.709Z,465.00
2023-05-07T03:23:06.782Z,465.00
2023-05-07T03:24:06.828Z,466.00
2023-05-07T03:25:06.930Z,465.00
2023-05-07T03:26:06.946Z,466.00
2023-05-07T03:27:07.016Z,465.00
2023-05-07T03:28:07.058Z,461.00
2023-05-07T03:29:07.117Z,460.00
2023-05-07T03:30:07.145Z,462.00
2023-05-07T03:31:07.272Z,459.00
2023-05-07T03:32:07.339Z,456.00
2023-05-07T03:33:07.309Z,454.00
2023-05-07T03:34:07.338Z,454.00
2023-05-07T03:35:07.478Z,456.00
2023-05-07T03:36:07.470Z,454.00
2023-05-07T03:37:07.546Z,454.00
2023-05-07T03:38:07.586Z,455.00
2023-05-07T03:39:07.675Z,454.00
2023-05-07T03:40:07.691Z,455.00
2023-05-07T03:41:07.779Z,456.00
2023-05-07T03:42:07.786Z,457.00
2023-05-07T03:43:07.884Z,458.00
2023-05-07T03:44:07.879Z,458.00
2023-05-07T03:45:07.938Z,457.00
2023-05-07T03:46:08.060Z,460.00
2023-05-07T03:47:08.073Z,462.00
2023-05-07T03:48:08.250Z,462.00
2023-05-07T03:49:08.130Z,461.00
2023-05-07T03:50:08.330Z,461.00
2023-05-07T03:51:08.213Z,463.00
2023-05-07T03:52:08.246Z,463.00
2023-05-07T03:53:08.310Z,465.00
2023-05-07T03:54:08.364Z,464.00
2023-05-07T03:55:08.355Z,462.00
2023-05-07T03:56:08.441Z,462.00
2023-05-07T03:57:08.453Z,462.00
2023-05-07T03:58:08.528Z,463.00
2023-05-07T03:59:08.530Z,463.00
2023-05-07T04:00:08.815Z,461.00
2023-05-07T04:01:08.709Z,461.00
2023-05-07T04:02:08.696Z,462.00
2023-05-07T04:03:08.822Z,464.00
2023-05-07T04:04:08.732Z,463.00
2023-05-07T04:05:08.748Z,464.00
2023-05-07T04:06:08.768Z,463.00
2023-05-07T04:07:08.824Z,465.00
2023-05-07T04:08:08.863Z,467.00
2023-05-07T04:09:08.865Z,466.00
2023-05-07T04:10:09.029Z,467.00
2023-05-07T04:11:08.953Z,467.00
2023-05-07T04:12:08.926Z,468.00
2023-05-07T04:13:08.999Z,466.00
2023-05-07T04:14:09.007Z,469.00
2023-05-07T04:15:09.056Z,470.00
2023-05-07T04:16:09.130Z,472.00
2023-05-07T04:17:09.151Z,474.00
2023-05-07T04:18:09.232Z,474.00
2023-05-07T04:19:09.177Z,471.00
2023-05-07T04:20:09.443Z,468.00
2023-05-07T04:21:09.244Z,468.00
2023-05-07T04:22:09.279Z,466.00
2023-05-07T04:23:09.345Z,465.00
2023-05-07T04:24:09.350Z,465.00
2023-05-07T04:25:09.397Z,466.00
2023-05-07T04:26:09.438Z,466.00
2023-05-07T04:27:09.447Z,466.00
2023-05-07T04:28:09.489Z,464.00
2023-05-07T04:29:09.521Z,461.00
2023-05-07T04:30:09.810Z,462.00
2023-05-07T04:31:09.621Z,462.00
2023-05-07T04:32:09.719Z,463.00
2023-05-07T04:33:09.731Z,463.00
2023-05-07T04:34:09.723Z,466.00
2023-05-07T04:35:09.752Z,469.00
2023-05-07T04:36:09.859Z,470.00
2023-05-07T04:37:09.788Z,472.00
2023-05-07T04:38:09.856Z,471.00
2023-05-07T04:39:09.901Z,469.00
2023-05-07T04:40:10.127Z,469.00
2023-05-07T04:41:09.908Z,468.00
2023-05-07T04:42:09.955Z,467.00
2023-05-07T04:43:09.952Z,466.00
2023-05-07T04:44:10.500Z,467.00
2023-05-07T04:45:09.986Z,469.00
2023-05-07T04:46:10.061Z,471.00
2023-05-07T04:47:10.024Z,471.00
2023-05-07T04:48:10.094Z,473.00
2023-05-07T04:49:10.063Z,471.00
2023-05-07T04:50:10.294Z,470.00
2023-05-07T04:51:10.105Z,472.00
2023-05-07T04:52:10.218Z,470.00
2023-05-07T04:53:10.196Z,467.00
2023-05-07T04:54:10.217Z,468.00
2023-05-07T04:55:10.241Z,469.00
2023-05-07T04:56:10.232Z,468.00
2023-05-07T04:57:10.213Z,465.00
2023-05-07T04:58:10.235Z,468.00
2023-05-07T04:59:10.305Z,465.00
2023-05-07T05:00:10.562Z,464.00
2023-05-07T05:01:10.347Z,465.00
2023-05-07T05:02:10.373Z,465.00
2023-05-07T05:03:10.582Z,465.00
2023-05-07T05:04:10.500Z,465.00
2023-05-07T05:05:10.531Z,468.00
2023-05-07T05:06:10.553Z,469.00
2023-05-07T05:07:10.605Z,469.00
2023-05-07T05:08:10.707Z,468.00
2023-05-07T05:09:10.716Z,468.00
2023-05-07T05:10:10.917Z,466.00
2023-05-07T05:11:10.841Z,465.00
2023-05-07T05:12:10.864Z,467.00
2023-05-07T05:13:10.965Z,464.00
2023-05-07T05:14:10.983Z,464.00
2023-05-07T05:15:11.028Z,465.00
2023-05-07T05:16:11.219Z,463.00
2023-05-07T05:17:11.102Z,462.00
2023-05-07T05:18:11.164Z,462.00
2023-05-07T05:19:11.237Z,462.00
2023-05-07T05:20:11.521Z,464.00
2023-05-07T05:21:11.336Z,463.00
2023-05-07T05:22:11.386Z,460.00
2023-05-07T05:23:11.440Z,458.00
2023-05-07T05:24:11.611Z,458.00
2023-05-07T05:25:11.565Z,461.00
2023-05-07T05:26:11.621Z,462.00
2023-05-07T05:27:11.658Z,464.00
2023-05-07T05:28:11.718Z,465.00
2023-05-07T05:29:11.758Z,463.00
2023-05-07T05:30:11.994Z,461.00
2023-05-07T05:31:11.894Z,460.00
2023-05-07T05:32:11.936Z,459.00
2023-05-07T05:33:12.022Z,456.00
2023-05-07T05:34:12.013Z,457.00
2023-05-07T05:35:12.052Z,458.00
2023-05-07T05:36:12.110Z,459.00
2023-05-07T05:37:12.166Z,460.00
2023-05-07T05:38:12.187Z,460.00
2023-05-07T05:39:12.278Z,463.00
2023-05-07T05:40:12.567Z,460.00
2023-05-07T05:41:12.366Z,459.00
2023-05-07T05:42:12.442Z,459.00
2023-05-07T05:43:12.504Z,460.00
2023-05-07T05:44:12.558Z,460.00
2023-05-07T05:45:12.608Z,460.00
2023-05-07T05:46:12.897Z,461.00
2023-05-07T05:47:12.709Z,460.00
2023-05-07T05:48:12.826Z,463.00
2023-05-07T05:49:12.858Z,464.00
2023-05-07T05:50:13.070Z,465.00
2023-05-07T05:51:12.940Z,464.00
2023-05-07T05:52:13.038Z,465.00
2023-05-07T05:53:13.057Z,464.00
2023-05-07T05:54:13.143Z,463.00
2023-05-07T05:55:13.226Z,465.00
2023-05-07T05:56:13.251Z,462.00
2023-05-07T05:57:13.295Z,461.00
2023-05-07T05:58:13.366Z,459.00
2023-05-07T05:59:13.463Z,460.00
2023-05-07T06:00:13.742Z,461.00
2023-05-07T06:01:13.547Z,462.00
2023-05-07T06:02:14.559Z,464.00
2023-05-07T06:03:14.205Z,463.00
2023-05-07T06:04:13.694Z,460.00
2023-05-07T06:05:13.805Z,461.00
2023-05-07T06:06:13.832Z,461.00
2023-05-07T06:07:13.891Z,459.00
2023-05-07T06:08:13.983Z,458.00
2023-05-07T06:09:14.030Z,458.00
2023-05-07T06:10:14.223Z,456.00
2023-05-07T06:11:14.142Z,457.00
2023-05-07T06:12:14.284Z,458.00
2023-05-07T06:13:14.302Z,460.00
2023-05-07T06:14:14.301Z,463.00
2023-05-07T06:15:14.388Z,463.00
2023-05-07T06:16:14.460Z,464.00
2023-05-07T06:17:14.499Z,465.00
2023-05-07T06:18:14.620Z,466.00
2023-05-07T06:19:14.624Z,465.00
2023-05-07T06:20:14.692Z,466.00
2023-05-07T06:21:14.726Z,470.00
2023-05-07T06:22:14.790Z,468.00
2023-05-07T06:23:16.442Z,467.00
2023-05-07T06:24:14.844Z,467.00
2023-05-07T06:25:14.821Z,467.00
2023-05-07T06:26:14.840Z,467.00
2023-05-07T06:27:14.840Z,467.00
2023-05-07T06:28:14.810Z,466.00
2023-05-07T06:29:14.843Z,468.00
2023-05-07T06:30:14.820Z,466.00
2023-05-07T06:31:14.892Z,465.00
2023-05-07T06:32:14.965Z,465.00
2023-05-07T06:33:14.800Z,465.00
2023-05-07T06:34:14.792Z,466.00
2023-05-07T06:35:14.769Z,469.00
2023-05-07T06:36:14.852Z,473.00
2023-05-07T06:37:14.759Z,471.00
2023-05-07T06:38:14.744Z,471.00
2023-05-07T06:39:14.768Z,469.00
2023-05-07T06:40:14.750Z,470.00
2023-05-07T06:41:14.716Z,471.00
2023-05-07T06:42:14.704Z,470.00
2023-05-07T06:43:14.743Z,468.00
2023-05-07T06:44:14.830Z,469.00
2023-05-07T06:45:14.682Z,471.00
2023-05-07T06:46:14.745Z,468.00
2023-05-07T06:47:16.121Z,469.00
2023-05-07T06:48:14.685Z,467.00
2023-05-07T06:49:14.720Z,467.00
2023-05-07T06:50:14.652Z,467.00
2023-05-07T06:51:14.658Z,468.00
2023-05-07T06:52:14.659Z,469.00
2023-05-07T06:53:14.638Z,470.00
2023-05-07T06:54:14.663Z,470.00
2023-05-07T06:55:14.639Z,471.00
2023-05-07T06:56:14.663Z,472.00
2023-05-07T06:57:14.644Z,473.00
2023-05-07T06:58:14.728Z,472.00
2023-05-07T06:59:14.773Z,472.00
2023-05-07T07:00:14.912Z,474.00
2023-05-07T07:01:14.887Z,474.00
2023-05-07T07:02:16.440Z,474.00
2023-05-07T07:03:15.004Z,472.00
2023-05-07T07:04:14.952Z,474.00
2023-05-07T07:05:14.896Z,472.00
2023-05-07T07:06:14.869Z,470.00
2023-05-07T07:07:14.839Z,470.00
2023-05-07T07:08:14.864Z,469.00
2023-05-07T07:09:14.854Z,467.00
2023-05-07T07:10:14.820Z,465.00
2023-05-07T07:11:14.845Z,462.00
2023-05-07T07:12:14.857Z,462.00
2023-05-07T07:13:14.883Z,463.00
2023-05-07T07:14:14.839Z,464.00
2023-05-07T07:15:14.828Z,463.00
2023-05-07T07:16:14.880Z,464.00
2023-05-07T07:17:14.831Z,461.00
2023-05-07T07:18:14.818Z,463.00
2023-05-07T07:19:14.797Z,463.00
2023-05-07T07:20:14.937Z,463.00
2023-05-07T07:21:14.793Z,464.00
2023-05-07T07:22:14.791Z,463.00
2023-05-07T07:23:14.777Z,462.00
2023-05-07T07:24:14.752Z,460.00
2023-05-07T07:25:14.752Z,462.00
2023-05-07T07:26:14.764Z,463.00
2023-05-07T07:27:14.744Z,464.00
2023-05-07T07:28:14.736Z,463.00
2023-05-07T07:29:14.744Z,465.00
2023-05-07T07:30:14.717Z,465.00
2023-05-07T07:31:14.744Z,464.00
2023-05-07T07:32:14.794Z,464.00
2023-05-07T07:33:14.707Z,464.00
2023-05-07T07:34:14.667Z,465.00
2023-05-07T07:35:14.686Z,468.00
2023-05-07T07:36:14.657Z,467.00
2023-05-07T07:37:14.679Z,465.00
2023-05-07T07:38:14.639Z,465.00
2023-05-07T07:39:14.675Z,465.00
2023-05-07T07:40:14.638Z,465.00
2023-05-07T07:41:14.613Z,461.00
2023-05-07T07:42:14.649Z,461.00
2023-05-07T07:43:14.646Z,462.00
2023-05-07T07:44:16.425Z,465.00
2023-05-07T07:45:14.624Z,466.00
2023-05-07T07:46:14.630Z,465.00
2023-05-07T07:47:14.673Z,467.00
2023-05-07T07:48:14.701Z,467.00
2023-05-07T07:49:14.686Z,465.00
2023-05-07T07:50:21.883Z,465.00
2023-05-07T07:51:15.729Z,467.00
2023-05-07T07:52:14.741Z,468.00
2023-05-07T07:53:14.717Z,466.00
2023-05-07T07:54:14.694Z,466.00
2023-05-07T07:55:14.672Z,466.00
2023-05-07T07:56:14.683Z,464.00
2023-05-07T07:57:14.669Z,466.00
2023-05-07T07:58:14.653Z,468.00
2023-05-07T07:59:14.780Z,467.00
2023-05-07T08:00:14.660Z,467.00
2023-05-07T08:01:14.624Z,466.00
2023-05-07T08:02:14.627Z,464.00
2023-05-07T08:03:14.776Z,464.00
2023-05-07T08:04:14.873Z,465.00
2023-05-07T08:05:14.772Z,465.00
2023-05-07T08:06:15.285Z,462.00
2023-05-07T08:07:14.826Z,461.00
2023-05-07T08:08:14.838Z,462.00
2023-05-07T08:09:14.873Z,463.00
2023-05-07T08:10:14.963Z,462.00
2023-05-07T08:11:14.932Z,464.00
2023-05-07T08:12:14.963Z,466.00
2023-05-07T08:13:15.051Z,464.00
2023-05-07T08:14:15.053Z,464.00
2023-05-07T08:15:15.054Z,463.00
2023-05-07T08:16:15.160Z,460.00
2023-05-07T08:17:15.274Z,459.00
2023-05-07T08:18:15.191Z,461.00
2023-05-07T08:19:15.190Z,460.00
2023-05-07T08:20:15.288Z,461.00
2023-05-07T08:21:15.308Z,460.00
2023-05-07T08:22:15.330Z,461.00
2023-05-07T08:23:15.391Z,462.00
2023-05-07T08:24:15.373Z,462.00
2023-05-07T08:25:15.397Z,464.00
2023-05-07T08:26:15.414Z,467.00
2023-05-07T08:27:15.449Z,468.00
2023-05-07T08:28:15.458Z,469.00
2023-05-07T08:29:15.509Z,467.00
2023-05-07T08:30:15.526Z,463.00
2023-05-07T08:31:15.583Z,465.00
2023-05-07T08:32:15.584Z,465.00
2023-05-07T08:33:15.630Z,470.00
2023-05-07T08:34:15.659Z,469.00
2023-05-07T08:35:15.661Z,468.00
2023-05-07T08:36:15.756Z,468.00
2023-05-07T08:37:15.755Z,469.00
2023-05-07T08:38:15.756Z,469.00
2023-05-07T08:39:15.768Z,470.00
2023-05-07T08:40:16.227Z,471.00
2023-05-07T08:41:15.831Z,471.00
2023-05-07T08:42:15.817Z,472.00
2023-05-07T08:43:15.899Z,470.00
2023-05-07T08:44:15.898Z,471.00
2023-05-07T08:45:15.880Z,471.00
2023-05-07T08:46:15.927Z,472.00
2023-05-07T08:47:15.943Z,472.00
2023-05-07T08:48:15.991Z,472.00
2023-05-07T08:49:15.992Z,473.00
2023-05-07T08:50:15.998Z,475.00
2023-05-07T08:51:16.047Z,473.00
2023-05-07T08:52:16.091Z,470.00
2023-05-07T08:53:16.075Z,470.00
2023-05-07T08:54:16.119Z,473.00
2023-05-07T08:55:16.148Z,470.00
2023-05-07T08:56:16.125Z,470.00
2023-05-07T08:57:16.190Z,471.00
2023-05-07T08:58:16.188Z,469.00
2023-05-07T08:59:16.220Z,467.00
2023-05-07T09:00:16.212Z,470.00
2023-05-07T09:01:16.298Z,470.00
2023-05-07T09:02:16.330Z,470.00
2023-05-07T09:03:16.344Z,470.00
2023-05-07T09:04:16.355Z,468.00
2023-05-07T09:05:16.320Z,470.00
2023-05-07T09:06:16.344Z,468.00
2023-05-07T09:07:16.328Z,466.00
2023-05-07T09:08:16.417Z,464.00
2023-05-07T09:09:16.360Z,467.00
2023-05-07T09:10:16.357Z,467.00
2023-05-07T09:11:16.369Z,464.00
2023-05-07T09:12:16.405Z,464.00
2023-05-07T09:13:16.444Z,463.00
2023-05-07T09:14:16.398Z,465.00
2023-05-07T09:15:16.395Z,465.00
2023-05-07T09:16:16.539Z,465.00
2023-05-07T09:17:16.440Z,467.00
2023-05-07T09:18:16.887Z,467.00
2023-05-07T09:19:16.476Z,467.00
2023-05-07T09:20:16.449Z,466.00
2023-05-07T09:21:16.503Z,466.00
2023-05-07T09:22:16.486Z,466.00
2023-05-07T09:23:16.536Z,468.00
2023-05-07T09:24:16.520Z,470.00
2023-05-07T09:25:16.513Z,467.00
2023-05-07T09:26:16.539Z,466.00
2023-05-07T09:27:16.576Z,467.00
2023-05-07T09:28:16.535Z,464.00
2023-05-07T09:29:16.565Z,462.00
2023-05-07T09:30:16.587Z,463.00
2023-05-07T09:31:18.236Z,463.00
2023-05-07T09:32:16.582Z,463.00
2023-05-07T09:33:16.556Z,464.00
2023-05-07T09:34:16.617Z,464.00
2023-05-07T09:35:16.572Z,465.00
2023-05-07T09:36:16.550Z,464.00
2023-05-07T09:37:16.538Z,466.00
2023-05-07T09:38:16.538Z,465.00
2023-05-07T09:39:16.522Z,466.00
2023-05-07T09:40:16.540Z,463.00
2023-05-07T09:41:16.485Z,462.00
2023-05-07T09:42:16.520Z,463.00
2023-05-07T09:43:16.503Z,462.00
2023-05-07T09:44:16.502Z,464.00
2023-05-07T09:45:16.479Z,466.00
2023-05-07T09:46:16.562Z,465.00
2023-05-07T09:47:16.452Z,465.00
2023-05-07T09:48:16.488Z,466.00
2023-05-07T09:49:16.434Z,467.00
2023-05-07T09:50:16.461Z,467.00
2023-05-07T09:51:16.451Z,465.00
2023-05-07T09:52:16.441Z,465.00
2023-05-07T09:53:16.438Z,463.00
2023-05-07T09:54:16.405Z,463.00
2023-05-07T09:55:16.427Z,461.00
2023-05-07T09:56:16.565Z,462.00
2023-05-07T09:57:16.423Z,461.00
2023-05-07T09:58:16.441Z,460.00
2023-05-07T09:59:16.377Z,458.00
2023-05-07T10:00:16.512Z,458.00
2023-05-07T10:01:16.382Z,458.00
2023-05-07T10:02:16.400Z,458.00
2023-05-07T10:03:16.432Z,461.00
2023-05-07T10:04:16.386Z,460.00
2023-05-07T10:05:16.380Z,459.00
2023-05-07T10:06:16.372Z,461.00
2023-05-07T10:07:16.363Z,462.00
2023-05-07T10:08:16.362Z,464.00
2023-05-07T10:09:16.444Z,462.00
2023-05-07T10:10:16.356Z,463.00
2023-05-07T10:11:16.332Z,463.00
2023-05-07T10:12:16.374Z,463.00
2023-05-07T10:13:16.411Z,465.00
2023-05-07T10:14:16.316Z,466.00
2023-05-07T10:15:16.330Z,467.00
2023-05-07T10:16:16.313Z,468.00
2023-05-07T10:17:16.336Z,467.00
2023-05-07T10:18:16.385Z,466.00
2023-05-07T10:19:16.264Z,465.00
2023-05-07T10:20:16.273Z,467.00
2023-05-07T10:21:16.280Z,465.00
2023-05-07T10:22:16.236Z,463.00
2023-05-07T10:23:16.244Z,461.00
2023-05-07T10:24:16.256Z,462.00
2023-05-07T10:25:16.224Z,460.00
2023-05-07T10:26:16.238Z,459.00
2023-05-07T10:27:16.259Z,459.00
2023-05-07T10:28:16.420Z,459.00
2023-05-07T10:29:16.202Z,461.00
2023-05-07T10:30:16.202Z,459.00
2023-05-07T10:31:16.232Z,458.00
2023-05-07T10:32:16.208Z,459.00
2023-05-07T10:33:16.253Z,460.00
2023-05-07T10:34:16.182Z,463.00
2023-05-07T10:35:16.180Z,464.00
2023-05-07T10:36:16.173Z,464.00
2023-05-07T10:37:16.171Z,466.00
2023-05-07T10:38:16.178Z,468.00
2023-05-07T10:39:16.155Z,467.00
2023-05-07T10:40:16.153Z,464.00
2023-05-07T10:41:16.173Z,469.00
2023-05-07T10:42:16.171Z,466.00
2023-05-07T10:43:16.222Z,467.00
2023-05-07T10:44:16.306Z,466.00
2023-05-07T10:45:16.331Z,467.00
2023-05-07T10:46:16.404Z,466.00
2023-05-07T10:47:16.434Z,464.00
2023-05-07T10:48:29.579Z,462.00
2023-05-07T10:49:17.472Z,462.00
2023-05-07T10:50:16.506Z,465.00
2023-05-07T10:51:16.461Z,466.00
2023-05-07T10:52:16.454Z,464.00
2023-05-07T10:53:16.447Z,464.00
2023-05-07T10:54:16.495Z,464.00
2023-05-07T10:55:16.448Z,466.00
2023-05-07T10:56:16.430Z,468.00
2023-05-07T10:57:16.527Z,470.00
2023-05-07T10:58:30.228Z,468.00
2023-05-07T10:59:17.537Z,467.00
2023-05-07T11:00:18.420Z,465.00
2023-05-07T11:01:17.547Z,467.00
2023-05-07T11:02:16.571Z,467.00
2023-05-07T11:03:16.519Z,464.00
2023-05-07T11:04:16.538Z,463.00
2023-05-07T11:05:16.535Z,463.00
2023-05-07T11:06:16.506Z,463.00
2023-05-07T11:07:16.471Z,465.00
2023-05-07T11:08:16.488Z,466.00
2023-05-07T11:09:16.501Z,467.00
2023-05-07T11:10:16.569Z,468.00
2023-05-07T11:11:16.605Z,469.00
2023-05-07T11:12:16.648Z,468.00
2023-05-07T11:13:16.782Z,466.00
2023-05-07T11:14:16.780Z,464.00
2023-05-07T11:15:16.922Z,463.00
2023-05-07T11:16:16.930Z,464.00
2023-05-07T11:17:16.924Z,462.00
2023-05-07T11:18:16.950Z,462.00
2023-05-07T11:19:17.009Z,461.00
2023-05-07T11:20:17.041Z,463.00
2023-05-07T11:21:17.133Z,461.00
2023-05-07T11:22:17.164Z,463.00
2023-05-07T11:23:17.223Z,463.00
2023-05-07T11:24:17.276Z,464.00
2023-05-07T11:25:17.319Z,464.00
2023-05-07T11:26:17.392Z,465.00
2023-05-07T11:27:17.393Z,461.00
2023-05-07T11:28:17.468Z,460.00
2023-05-07T11:29:19.434Z,460.00
2023-05-07T11:30:17.485Z,462.00
2023-05-07T11:31:17.492Z,462.00
2023-05-07T11:32:17.455Z,461.00
2023-05-07T11:33:17.486Z,461.00
2023-05-07T11:34:17.473Z,462.00
2023-05-07T11:35:17.425Z,463.00
2023-05-07T11:36:17.408Z,466.00
2023-05-07T11:37:17.420Z,465.00
2023-05-07T11:38:17.444Z,463.00
2023-05-07T11:39:17.410Z,461.00
2023-05-07T11:40:17.419Z,460.00
2023-05-07T11:41:17.450Z,458.00
2023-05-07T11:42:17.400Z,460.00
2023-05-07T11:43:17.425Z,461.00
2023-05-07T11:44:17.377Z,459.00
2023-05-07T11:45:17.399Z,460.00
2023-05-07T11:46:17.422Z,462.00
2023-05-07T11:47:17.351Z,462.00
2023-05-07T11:48:17.435Z,460.00
2023-05-07T11:49:17.386Z,460.00
2023-05-07T11:50:17.386Z,461.00
2023-05-07T11:51:17.360Z,462.00
2023-05-07T11:52:17.339Z,461.00
2023-05-07T11:53:17.333Z,460.00
2023-05-07T11:54:17.354Z,460.00
2023-05-07T11:55:17.344Z,460.00
2023-05-07T11:56:17.312Z,460.00
2023-05-07T11:57:17.314Z,460.00
2023-05-07T11:58:17.302Z,459.00
2023-05-07T11:59:17.277Z,457.00
2023-05-07T12:00:17.289Z,459.00
2023-05-07T12:01:17.304Z,464.00
2023-05-07T12:02:17.341Z,466.00
2023-05-07T12:03:17.396Z,468.00
2023-05-07T12:04:17.352Z,468.00
2023-05-07T12:05:17.277Z,467.00
2023-05-07T12:06:17.331Z,466.00
2023-05-07T12:07:17.407Z,466.00
2023-05-07T12:08:17.478Z,465.00
2023-05-07T12:09:17.520Z,464.00
2023-05-07T12:10:17.593Z,463.00
2023-05-07T12:11:17.616Z,464.00
2023-05-07T12:12:17.652Z,465.00
2023-05-07T12:13:17.767Z,467.00
2023-05-07T12:14:17.750Z,469.00
2023-05-07T12:15:17.808Z,470.00
2023-05-07T12:16:17.867Z,469.00
2023-05-07T12:17:18.032Z,468.00
2023-05-07T12:18:17.975Z,468.00
2023-05-07T12:19:18.040Z,466.00
2023-05-07T12:20:18.129Z,466.00
2023-05-07T12:21:18.153Z,466.00
2023-05-07T12:22:18.195Z,466.00
2023-05-07T12:23:18.296Z,467.00
2023-05-07T12:24:21.972Z,468.00
2023-05-07T12:25:18.333Z,467.00
2023-05-07T12:26:18.322Z,468.00
2023-05-07T12:27:18.331Z,467.00
2023-05-07T12:28:18.316Z,464.00
2023-05-07T12:29:18.295Z,464.00